Asherton, Texas
Current Conditions -  °F | °C
As of 1:35 PM on Tuesday 21 Oct 2014 (Local Time) from KCZT Reporting Station
Overcast Overcast  
Wind Chill: 79°   Ceiling: 7500
Heat Index: 80°   Visibility: 10mi
Dew Point: 61°   Wind: 6mph
Humidity: 54%   Direction: 110°ESE
Pressure: 30"   Gusts: NA
Location:  28.44°N, 99.76°W
Report Text: KCZT 211835Z AUTO 11005KT 10SM SCT050 SCT065 OVC075 26/16 A3000 RMK AO2
Loading
Personal Weather Stations






























Interactive Weather Map New forecast layout! Learn more

10-Day Weather Forecast

Advertisements
Track Severe Weather on mobile